createdAt,value
2022-12-20T00:00:54.348Z,2.31
2022-12-20T00:03:23.588Z,2.29
2022-12-20T00:05:51.409Z,2.32
2022-12-20T00:08:19.416Z,2.32
2022-12-20T00:10:47.293Z,2.27
2022-12-20T00:13:15.210Z,2.30
2022-12-20T00:15:43.213Z,2.31
2022-12-20T00:18:12.209Z,2.30
2022-12-20T00:20:41.343Z,2.22
2022-12-20T00:23:09.115Z,2.28
2022-12-20T00:25:36.977Z,2.25
2022-12-20T00:28:04.923Z,2.28
2022-12-20T00:30:32.664Z,2.22
2022-12-20T00:33:00.443Z,2.24
2022-12-20T00:35:28.242Z,2.24
2022-12-20T00:37:57.408Z,2.17
2022-12-20T00:40:25.191Z,2.23
2022-12-20T00:42:53.034Z,2.28
2022-12-20T00:45:20.948Z,2.24
2022-12-20T00:47:50.050Z,2.22
2022-12-20T00:50:18.256Z,2.18
2022-12-20T00:52:46.003Z,2.18
2022-12-20T00:55:15.143Z,2.20
2022-12-20T00:57:43.256Z,2.16
2022-12-20T01:00:12.593Z,2.10
2022-12-20T01:02:40.464Z,2.03
2022-12-20T01:05:09.264Z,2.01
2022-12-20T01:07:37.287Z,2.00
2022-12-20T01:10:05.398Z,2.03
2022-12-20T01:12:34.644Z,1.97
2022-12-20T01:15:02.850Z,1.87
2022-12-20T01:17:30.623Z,1.92
2022-12-20T01:19:58.471Z,1.94
2022-12-20T01:22:26.333Z,1.92
2022-12-20T01:24:54.151Z,1.95
2022-12-20T01:27:22.296Z,1.91
2022-12-20T01:29:52.295Z,1.88
2022-12-20T01:32:21.100Z,1.86
2022-12-20T01:34:48.780Z,1.84
2022-12-20T01:37:16.662Z,1.87
2022-12-20T01:39:44.420Z,1.88
2022-12-20T01:42:15.540Z,1.73
2022-12-20T01:45:00.365Z,1.73
2022-12-20T01:47:33.472Z,1.87
2022-12-20T01:50:04.159Z,1.85
2022-12-20T01:52:36.410Z,1.85
2022-12-20T01:55:10.091Z,1.70
2022-12-20T01:57:42.234Z,1.73
2022-12-20T02:00:13.168Z,1.72
2022-12-20T02:02:41.729Z,1.75
2022-12-20T02:05:10.289Z,1.69
2022-12-20T02:07:39.900Z,1.62
2022-12-20T02:10:10.280Z,1.73
2022-12-20T02:12:42.436Z,1.62
2022-12-20T02:15:25.223Z,1.66
2022-12-20T02:18:03.196Z,1.65
2022-12-20T02:20:50.986Z,1.63
2022-12-20T02:23:46.190Z,1.48
2022-12-20T02:26:31.756Z,1.45
2022-12-20T02:29:21.353Z,1.48
2022-12-20T02:31:57.213Z,1.55
2022-12-20T02:34:27.210Z,1.60
2022-12-20T02:36:54.994Z,1.48
2022-12-20T02:39:24.959Z,1.43
2022-12-20T02:41:55.863Z,1.52
2022-12-20T02:44:45.411Z,1.43
2022-12-20T02:47:21.687Z,1.50
2022-12-20T02:49:51.691Z,1.53
2022-12-20T02:52:22.212Z,1.50
2022-12-20T02:54:50.250Z,1.55
2022-12-20T02:57:23.598Z,1.50
2022-12-20T02:59:59.345Z,1.42
2022-12-20T03:02:29.452Z,1.49
2022-12-20T03:04:59.701Z,1.41
2022-12-20T03:07:30.486Z,1.43
2022-12-20T03:09:58.291Z,1.44
2022-12-20T03:12:26.208Z,1.46
2022-12-20T03:14:54.082Z,1.40
2022-12-20T03:17:22.123Z,1.42
2022-12-20T03:19:51.338Z,1.41
2022-12-20T03:22:19.133Z,1.39
2022-12-20T03:24:47.055Z,1.35
2022-12-20T03:27:14.931Z,1.41
2022-12-20T03:29:42.716Z,1.45
2022-12-20T03:32:10.510Z,1.40
2022-12-20T03:34:38.276Z,1.34
2022-12-20T03:37:07.565Z,1.43
2022-12-20T03:39:35.421Z,1.35
2022-12-20T03:42:03.158Z,1.48
2022-12-20T03:44:31.538Z,1.40
2022-12-20T03:46:59.431Z,1.32
2022-12-20T03:49:27.300Z,1.43
2022-12-20T03:51:55.179Z,1.40
2022-12-20T03:54:24.300Z,1.33
2022-12-20T03:56:52.135Z,1.39
2022-12-20T03:59:20.006Z,1.31
2022-12-20T04:01:48.252Z,1.36
2022-12-20T04:04:17.211Z,1.31
2022-12-20T04:06:45.088Z,1.34
2022-12-20T04:09:13.158Z,1.24
2022-12-20T04:11:42.402Z,1.35
2022-12-20T04:14:10.248Z,1.40
2022-12-20T04:16:38.159Z,1.34
2022-12-20T04:19:06.207Z,1.44
2022-12-20T04:21:36.074Z,1.40
2022-12-20T04:24:04.901Z,1.36
2022-12-20T04:26:32.833Z,1.33
2022-12-20T04:29:01.969Z,1.37
2022-12-20T04:31:29.986Z,1.36
2022-12-20T04:33:58.126Z,1.30
2022-12-20T04:36:26.473Z,1.33
2022-12-20T04:38:55.199Z,1.29
2022-12-20T04:41:27.047Z,1.35
2022-12-20T04:43:57.107Z,1.36
2022-12-20T04:46:27.520Z,1.26
2022-12-20T04:48:57.777Z,1.26
2022-12-20T04:51:27.681Z,1.30
2022-12-20T04:53:55.275Z,1.21
2022-12-20T04:56:26.241Z,1.35
2022-12-20T04:58:55.417Z,1.32
2022-12-20T05:01:24.110Z,1.30
2022-12-20T05:03:53.720Z,1.27
2022-12-20T05:06:21.659Z,1.31
2022-12-20T05:08:49.575Z,1.34
2022-12-20T05:11:18.878Z,1.37
2022-12-20T05:13:46.681Z,1.41
2022-12-20T05:16:15.073Z,1.35
2022-12-20T05:18:48.602Z,1.34
2022-12-20T05:21:35.986Z,1.38
2022-12-20T05:24:21.284Z,1.35
2022-12-20T05:26:49.142Z,1.42
2022-12-20T05:29:17.747Z,1.44
2022-12-20T05:31:45.603Z,1.38
2022-12-20T05:34:13.469Z,1.40
2022-12-20T05:36:42.598Z,1.30
2022-12-20T05:39:11.913Z,1.35
2022-12-20T05:41:40.535Z,1.34
2022-12-20T05:44:08.853Z,1.40
2022-12-20T05:46:36.800Z,1.42
2022-12-20T05:49:04.902Z,1.46
2022-12-20T05:51:32.708Z,1.40
2022-12-20T05:54:01.859Z,1.44
2022-12-20T05:56:29.638Z,1.46
2022-12-20T05:58:59.030Z,1.48
2022-12-20T06:01:27.073Z,1.39
2022-12-20T06:03:55.028Z,1.46
2022-12-20T06:06:22.999Z,1.43
2022-12-20T06:08:50.819Z,1.45
2022-12-20T06:11:24.351Z,1.37
2022-12-20T06:13:55.634Z,1.33
2022-12-20T06:16:23.537Z,1.38
2022-12-20T06:18:51.837Z,1.41
2022-12-20T06:21:19.610Z,1.40
2022-12-20T06:23:47.418Z,1.45
2022-12-20T06:26:15.537Z,1.44
2022-12-20T06:28:44.747Z,1.48
2022-12-20T06:31:13.079Z,1.43
2022-12-20T06:33:40.975Z,1.41
2022-12-20T06:36:09.172Z,1.41
2022-12-20T06:38:37.063Z,1.45
2022-12-20T06:41:04.969Z,1.47
2022-12-20T06:43:32.942Z,1.46
2022-12-20T06:46:02.151Z,1.44
2022-12-20T06:48:30.992Z,1.51
2022-12-20T06:50:58.857Z,1.43
2022-12-20T06:53:26.702Z,1.46
2022-12-20T06:55:54.637Z,1.46
2022-12-20T06:58:22.863Z,1.52
2022-12-20T07:00:50.923Z,1.57
2022-12-20T07:03:20.468Z,1.54
2022-12-20T07:05:53.279Z,1.40
2022-12-20T07:08:21.150Z,1.48
2022-12-20T07:10:49.432Z,1.48
2022-12-20T07:13:17.737Z,1.50
2022-12-20T07:15:45.841Z,1.47
2022-12-20T07:18:13.689Z,1.55
2022-12-20T07:20:42.864Z,1.55
2022-12-20T07:23:10.730Z,1.54
2022-12-20T07:25:38.507Z,1.61
2022-12-20T07:28:06.905Z,1.60
2022-12-20T07:30:34.715Z,1.60
2022-12-20T07:33:02.482Z,1.59
2022-12-20T07:35:30.254Z,1.67
2022-12-20T07:37:59.595Z,1.72
2022-12-20T07:40:27.456Z,1.72
2022-12-20T07:42:55.239Z,1.70
2022-12-20T07:45:23.218Z,1.73
2022-12-20T07:47:51.099Z,1.70
2022-12-20T07:50:19.062Z,1.65
2022-12-20T07:52:48.006Z,1.69
2022-12-20T07:55:17.155Z,1.75
2022-12-20T07:57:49.520Z,1.73
2022-12-20T08:00:19.077Z,1.76
2022-12-20T08:02:54.010Z,1.81
2022-12-20T08:05:22.540Z,1.80
2022-12-20T08:07:56.843Z,1.86
2022-12-20T08:10:28.507Z,1.90
2022-12-20T08:12:57.351Z,1.88
2022-12-20T08:15:25.741Z,1.92
2022-12-20T08:17:53.642Z,1.87
2022-12-20T08:20:21.789Z,1.86
2022-12-20T08:22:49.556Z,1.81
2022-12-20T08:25:17.651Z,1.82
2022-12-20T08:27:46.818Z,1.78
2022-12-20T08:30:15.599Z,1.88
2022-12-20T08:32:43.548Z,1.89
2022-12-20T08:35:13.060Z,1.97
2022-12-20T08:37:41.955Z,1.93
2022-12-20T08:40:10.934Z,1.92
2022-12-20T08:42:38.759Z,1.99
2022-12-20T08:45:08.782Z,2.08
2022-12-20T08:47:36.585Z,2.10
2022-12-20T08:50:04.893Z,2.12
2022-12-20T08:52:33.092Z,2.07
2022-12-20T08:55:02.417Z,2.14
2022-12-20T08:57:32.098Z,2.11
2022-12-20T08:59:59.934Z,2.09
2022-12-20T09:02:29.372Z,2.09
2022-12-20T09:04:57.390Z,2.08
2022-12-20T09:07:25.214Z,2.13
2022-12-20T09:09:52.973Z,2.12
2022-12-20T09:12:20.819Z,2.18
2022-12-20T09:14:48.576Z,2.14
2022-12-20T09:17:16.372Z,2.25
2022-12-20T09:19:45.587Z,2.21
2022-12-20T09:22:13.334Z,2.24
2022-12-20T09:24:41.110Z,2.36
2022-12-20T09:27:08.933Z,2.36
2022-12-20T09:29:36.806Z,2.36
2022-12-20T09:32:05.027Z,2.35
2022-12-20T09:34:32.812Z,2.36
2022-12-20T09:37:01.989Z,2.37
2022-12-20T09:39:29.800Z,2.36
2022-12-20T09:41:59.280Z,2.45
2022-12-20T09:44:31.646Z,2.50
2022-12-20T09:47:09.793Z,2.54
2022-12-20T09:49:42.483Z,2.52
2022-12-20T09:52:31.374Z,2.58
2022-12-20T09:55:12.357Z,2.56
2022-12-20T09:57:53.205Z,2.57
2022-12-20T10:00:22.293Z,2.62
2022-12-20T10:03:08.259Z,2.48
2022-12-20T10:05:47.210Z,2.67
2022-12-20T10:08:26.834Z,2.67
2022-12-20T10:10:57.165Z,2.71
2022-12-20T10:13:36.280Z,2.73
2022-12-20T10:16:15.381Z,2.53
2022-12-20T10:18:59.857Z,2.67
2022-12-20T10:21:37.927Z,2.70
2022-12-20T10:24:13.718Z,2.76
2022-12-20T10:26:41.579Z,2.78
2022-12-20T10:29:10.010Z,2.80
2022-12-20T10:31:38.025Z,2.78
2022-12-20T10:34:05.793Z,2.82
2022-12-20T10:36:35.513Z,2.87
2022-12-20T10:39:05.757Z,2.91
2022-12-20T10:41:48.897Z,2.94
2022-12-20T10:44:22.542Z,2.94
2022-12-20T10:46:54.035Z,2.89
2022-12-20T10:49:27.473Z,2.89
2022-12-20T10:51:57.373Z,2.95
2022-12-20T10:54:30.420Z,2.95
2022-12-20T10:57:02.675Z,2.89
2022-12-20T10:59:35.854Z,2.90
2022-12-20T11:02:38.796Z,2.93
2022-12-20T11:05:23.333Z,2.83
2022-12-20T11:10:46.074Z,2.95
2022-12-20T11:13:25.809Z,2.95
2022-12-20T11:15:57.510Z,2.95
2022-12-20T11:18:39.396Z,3.00
2022-12-20T11:21:25.869Z,3.01
2022-12-20T11:24:03.605Z,3.04
2022-12-20T11:26:44.030Z,3.09
2022-12-20T11:29:29.240Z,3.14
2022-12-20T11:32:09.523Z,3.10
2022-12-20T11:34:46.776Z,3.17
2022-12-20T11:37:22.983Z,3.01
2022-12-20T11:40:24.951Z,3.15
2022-12-20T11:43:02.119Z,3.06
2022-12-20T11:45:39.654Z,3.10
2022-12-20T11:48:43.209Z,3.18
2022-12-20T11:51:20.131Z,3.15
2022-12-20T11:53:56.261Z,3.19
2022-12-20T11:56:30.915Z,3.23
2022-12-20T11:59:04.246Z,3.26
2022-12-20T12:01:43.094Z,3.26
2022-12-20T12:04:16.734Z,3.25
2022-12-20T12:06:48.642Z,3.25
2022-12-20T12:09:23.919Z,3.28
2022-12-20T12:12:07.302Z,3.27
2022-12-20T12:14:46.706Z,3.29
2022-12-20T12:17:24.827Z,3.24
2022-12-20T12:19:58.224Z,3.25
2022-12-20T12:22:34.211Z,3.29
2022-12-20T12:25:10.635Z,3.40
2022-12-20T12:27:39.923Z,3.39
2022-12-20T12:30:13.727Z,3.46
2022-12-20T12:32:46.941Z,3.48
2022-12-20T12:35:39.941Z,3.50
2022-12-20T12:38:28.175Z,3.56
2022-12-20T12:41:40.318Z,3.61
2022-12-20T12:44:32.252Z,3.67
2022-12-20T12:47:03.674Z,3.73
2022-12-20T12:49:34.655Z,3.74
2022-12-20T12:52:07.080Z,3.76
2022-12-20T12:54:38.759Z,3.76
2022-12-20T12:57:13.964Z,3.67
2022-12-20T12:59:46.232Z,3.74
2022-12-20T13:02:37.390Z,3.76
2022-12-20T13:05:42.052Z,3.77
2022-12-20T13:08:19.106Z,3.81
2022-12-20T13:11:13.231Z,3.78
2022-12-20T13:13:41.020Z,3.79
2022-12-20T13:16:14.771Z,3.80
2022-12-20T13:19:12.163Z,3.81
2022-12-20T13:21:41.952Z,3.86
2022-12-20T13:24:37.469Z,3.72
2022-12-20T13:27:22.443Z,3.76
2022-12-20T13:29:58.174Z,3.63
2022-12-20T13:32:55.768Z,3.62
2022-12-20T13:35:31.767Z,3.59
2022-12-20T13:38:04.863Z,3.68
2022-12-20T13:40:39.146Z,3.72
2022-12-20T13:43:20.201Z,3.62
2022-12-20T13:45:50.761Z,3.51
2022-12-20T13:48:22.285Z,3.46
2022-12-20T13:50:52.882Z,3.57
2022-12-20T13:53:22.723Z,3.57
2022-12-20T13:55:52.678Z,3.61
2022-12-20T13:58:23.847Z,3.55
2022-12-20T14:00:54.070Z,3.48
2022-12-20T14:03:25.164Z,3.45
2022-12-20T14:05:58.520Z,3.35
2022-12-20T14:08:30.132Z,3.37
2022-12-20T14:11:11.070Z,3.53
2022-12-20T14:13:39.122Z,3.51
2022-12-20T14:16:15.629Z,3.43
2022-12-20T14:18:48.679Z,3.63
2022-12-20T14:21:17.294Z,3.75
2022-12-20T14:23:48.541Z,3.79
2022-12-20T14:26:19.933Z,3.79
2022-12-20T14:28:50.481Z,3.78
2022-12-20T14:31:26.963Z,3.94
2022-12-20T14:34:05.535Z,3.84
2022-12-20T14:36:34.501Z,4.02
2022-12-20T14:39:02.544Z,4.07
2022-12-20T14:41:36.961Z,4.02
2022-12-20T14:44:17.518Z,3.99
2022-12-20T14:46:50.605Z,4.11
2022-12-20T14:49:23.144Z,4.12
2022-12-20T14:51:51.885Z,4.08
2022-12-20T14:55:05.147Z,4.23
2022-12-20T14:57:23.820Z,4.22
2022-12-20T15:00:03.012Z,4.24
2022-12-20T15:02:41.973Z,4.22
2022-12-20T15:05:45.334Z,4.22
2022-12-20T15:08:15.473Z,4.29
2022-12-20T15:10:44.470Z,4.16
2022-12-20T15:13:15.479Z,4.23
2022-12-20T15:15:43.932Z,4.29
2022-12-20T15:18:14.261Z,4.25
2022-12-20T15:20:43.743Z,4.29
2022-12-20T15:23:16.242Z,4.26
2022-12-20T15:25:45.762Z,4.28
2022-12-20T15:28:18.284Z,4.38
2022-12-20T15:30:47.559Z,4.44
2022-12-20T15:33:19.037Z,4.37
2022-12-20T15:35:47.508Z,4.32
2022-12-20T15:38:25.471Z,4.33
2022-12-20T15:41:05.963Z,4.28
2022-12-20T15:43:39.613Z,4.21
2022-12-20T15:46:07.442Z,4.25
2022-12-20T15:48:35.325Z,4.38
2022-12-20T15:51:13.507Z,4.30
2022-12-20T15:53:41.276Z,4.31
2022-12-20T15:56:17.638Z,4.41
2022-12-20T15:58:47.466Z,4.21
2022-12-20T16:01:19.555Z,4.20
2022-12-20T16:03:48.160Z,4.01
2022-12-20T16:06:16.123Z,4.25
2022-12-20T16:08:44.178Z,4.24
2022-12-20T16:11:20.769Z,4.07
2022-12-20T16:13:50.494Z,3.98
2022-12-20T16:16:19.454Z,3.87
2022-12-20T16:18:47.759Z,3.84
2022-12-20T16:21:18.807Z,3.95
2022-12-20T16:23:47.480Z,4.01
2022-12-20T16:26:16.352Z,4.02
2022-12-20T16:28:44.639Z,3.86
2022-12-20T16:31:22.994Z,3.78
2022-12-20T16:33:51.083Z,3.77
2022-12-20T16:36:18.924Z,3.95
2022-12-20T16:38:46.842Z,4.03
2022-12-20T16:41:17.101Z,3.99
2022-12-20T16:43:46.091Z,3.96
2022-12-20T16:46:17.826Z,4.01
2022-12-20T16:48:46.570Z,3.95
2022-12-20T16:51:24.729Z,3.97
2022-12-20T16:54:17.867Z,4.15
2022-12-20T16:56:41.268Z,4.07
2022-12-20T16:59:25.134Z,4.09
2022-12-20T17:01:56.874Z,4.01
2022-12-20T17:04:26.680Z,4.04
2022-12-20T17:06:54.538Z,3.94
2022-12-20T17:09:22.339Z,3.95
2022-12-20T17:11:50.453Z,4.04
2022-12-20T17:14:19.941Z,4.13
2022-12-20T17:16:47.920Z,4.08
2022-12-20T17:19:20.216Z,4.06
2022-12-20T17:24:35.299Z,3.65
2022-12-20T17:27:03.215Z,3.67
2022-12-20T17:29:30.993Z,3.86
2022-12-20T17:31:58.911Z,4.00
2022-12-20T17:34:30.188Z,3.99
2022-12-20T17:36:59.439Z,3.96
2022-12-20T17:39:27.539Z,3.98
2022-12-20T17:41:56.197Z,4.09
2022-12-20T17:44:26.508Z,4.20
2022-12-20T17:46:55.835Z,4.20
2022-12-20T17:49:24.470Z,4.18
2022-12-20T17:51:53.975Z,4.28
2022-12-20T17:54:25.251Z,4.33
2022-12-20T17:56:54.773Z,4.28
2022-12-20T17:59:23.035Z,4.23
2022-12-20T18:01:51.070Z,4.10
2022-12-20T18:04:19.258Z,4.13
2022-12-20T18:06:47.502Z,4.06
2022-12-20T18:09:18.501Z,4.13
2022-12-20T18:11:46.703Z,4.13
2022-12-20T18:14:15.195Z,4.02
2022-12-20T18:16:43.266Z,3.93
2022-12-20T18:19:16.926Z,3.80
2022-12-20T18:21:45.100Z,3.81
2022-12-20T18:24:14.200Z,3.72
2022-12-20T18:26:44.032Z,3.79
2022-12-20T18:29:12.394Z,4.01
2022-12-20T18:31:40.532Z,4.08
2022-12-20T18:34:08.407Z,4.02
2022-12-20T18:36:38.321Z,4.08
2022-12-20T18:39:08.125Z,4.12
2022-12-20T18:41:37.808Z,4.21
2022-12-20T18:44:08.089Z,4.19
2022-12-20T18:46:36.215Z,4.23
2022-12-20T18:49:04.764Z,4.28
2022-12-20T18:51:36.524Z,4.30
2022-12-20T18:54:06.533Z,4.24
2022-12-20T18:56:37.399Z,4.31
2022-12-20T18:59:11.891Z,4.35
2022-12-20T19:01:41.924Z,4.33
2022-12-20T19:04:10.647Z,4.20
2022-12-20T19:06:39.012Z,4.26
2022-12-20T19:09:09.231Z,4.29
2022-12-20T19:11:37.578Z,4.27
2022-12-20T19:14:07.631Z,4.28
2022-12-20T19:16:35.844Z,4.30
2022-12-20T19:19:04.595Z,4.35
2022-12-20T19:21:33.998Z,4.36
2022-12-20T19:24:05.226Z,4.44
2022-12-20T19:26:33.479Z,4.45
2022-12-20T19:29:01.260Z,4.37
2022-12-20T19:31:32.119Z,4.33
2022-12-20T19:34:03.393Z,4.33
2022-12-20T19:36:35.407Z,4.17
2022-12-20T19:39:05.693Z,4.11
2022-12-20T19:41:36.026Z,4.09
2022-12-20T19:44:04.674Z,4.08
2022-12-20T19:46:33.958Z,4.13
2022-12-20T19:49:01.977Z,4.22
2022-12-20T19:51:30.387Z,4.27
2022-12-20T19:53:59.488Z,4.32
2022-12-20T19:56:30.163Z,4.26
2022-12-20T19:58:58.254Z,4.31
2022-12-20T20:01:27.821Z,4.29
2022-12-20T20:03:58.813Z,4.29
2022-12-20T20:06:28.998Z,4.28
2022-12-20T20:08:59.688Z,4.20
2022-12-20T20:11:28.475Z,4.21
2022-12-20T20:13:56.448Z,4.23
2022-12-20T20:16:24.414Z,4.33
2022-12-20T20:18:52.525Z,4.37
2022-12-20T20:21:23.473Z,4.35
2022-12-20T20:23:53.202Z,4.36
2022-12-20T20:26:23.246Z,4.42
2022-12-20T20:28:51.700Z,4.37
2022-12-20T20:31:20.872Z,4.37
2022-12-20T20:33:49.241Z,4.37
2022-12-20T20:36:19.138Z,4.39
2022-12-20T20:38:49.796Z,4.36
2022-12-20T20:41:17.759Z,4.40
2022-12-20T20:43:46.018Z,4.42
2022-12-20T20:46:15.688Z,4.35
2022-12-20T20:48:45.491Z,4.40
2022-12-20T20:51:13.767Z,4.45
2022-12-20T20:53:42.257Z,4.44
2022-12-20T20:56:11.861Z,4.42
2022-12-20T20:58:39.889Z,4.44
2022-12-20T21:01:09.583Z,4.49
2022-12-20T21:03:38.405Z,4.45
2022-12-20T21:06:39.287Z,4.45
2022-12-20T21:08:55.297Z,4.39
2022-12-20T21:11:24.856Z,4.52
2022-12-20T21:13:54.410Z,4.47
2022-12-20T21:16:22.625Z,4.54
2022-12-20T21:18:52.627Z,4.48
2022-12-20T21:21:21.355Z,4.45
2022-12-20T21:23:49.390Z,4.57
2022-12-20T21:26:18.732Z,4.61
2022-12-20T21:28:48.417Z,4.58
2022-12-20T21:31:17.757Z,4.48
2022-12-20T21:33:46.845Z,4.60
2022-12-20T21:36:17.009Z,4.64
2022-12-20T21:38:50.184Z,4.62
2022-12-20T21:41:19.142Z,4.60
2022-12-20T21:43:48.343Z,4.57
2022-12-20T21:46:16.630Z,4.59
2022-12-20T21:48:45.711Z,4.65
2022-12-20T21:51:15.027Z,4.64
2022-12-20T21:53:44.700Z,4.66
2022-12-20T21:56:13.056Z,4.65
2022-12-20T21:58:40.905Z,4.69
2022-12-20T22:01:10.339Z,4.72
2022-12-20T22:03:39.191Z,4.68
2022-12-20T22:06:07.581Z,4.66
2022-12-20T22:08:35.722Z,4.51
2022-12-20T22:11:05.845Z,4.57
2022-12-20T22:13:41.167Z,4.58
2022-12-20T22:16:13.304Z,4.63
2022-12-20T22:18:42.123Z,4.63
2022-12-20T22:21:12.774Z,4.68
2022-12-20T22:23:41.230Z,4.55
2022-12-20T22:26:11.169Z,4.62
2022-12-20T22:28:39.783Z,4.68
2022-12-20T22:31:08.901Z,4.62
2022-12-20T22:33:39.225Z,4.61
2022-12-20T22:36:08.873Z,4.62
2022-12-20T22:38:37.931Z,4.61
2022-12-20T22:41:10.620Z,4.66
2022-12-20T22:43:41.013Z,4.69
2022-12-20T22:48:58.601Z,4.73
2022-12-20T22:51:27.460Z,4.76
2022-12-20T22:53:55.677Z,4.77
2022-12-20T22:56:23.758Z,4.75
2022-12-20T22:58:51.827Z,4.71
2022-12-20T23:01:21.483Z,4.71
2022-12-20T23:03:49.732Z,4.74
2022-12-20T23:06:20.854Z,4.73
2022-12-20T23:08:49.886Z,4.72
2022-12-20T23:11:38.838Z,4.67
2022-12-20T23:14:24.692Z,4.78
2022-12-20T23:16:52.816Z,4.82
2022-12-20T23:19:20.684Z,4.78
2022-12-20T23:22:07.194Z,4.79
2022-12-20T23:24:35.133Z,4.70
2022-12-20T23:27:03.287Z,4.69
2022-12-20T23:29:31.178Z,4.59
2022-12-20T23:31:59.049Z,4.71
2022-12-20T23:34:27.002Z,4.82
2022-12-20T23:36:56.208Z,4.82
2022-12-20T23:39:24.007Z,4.78
2022-12-20T23:41:51.917Z,4.80
2022-12-20T23:44:19.703Z,4.75
2022-12-20T23:46:47.510Z,4.84
2022-12-20T23:49:15.643Z,4.79
2022-12-20T23:51:43.480Z,4.77
2022-12-20T23:54:12.691Z,4.80
2022-12-20T23:56:41.131Z,4.83
2022-12-20T23:59:08.914Z,4.84
